sensor_id;sensor_type;location;lat;lon;timestamp;pressure;altitude;pressure_sealevel;temperature;humidity
68712;BME280;55690;51.566;19.198;2023-05-15T00:02:02;101277.55;;;19.82;65.74
68712;BME280;55690;51.566;19.198;2023-05-15T00:06:08;101253.52;;;19.92;66.27
68712;BME280;55690;51.566;19.198;2023-05-15T00:10:15;101242.97;;;19.87;67.08
68712;BME280;55690;51.566;19.198;2023-05-15T00:14:21;101233.68;;;19.88;67.45
68712;BME280;55690;51.566;19.198;2023-05-15T00:18:27;101222.75;;;19.79;67.55
68712;BME280;55690;51.566;19.198;2023-05-15T00:22:33;101227.95;;;19.82;67.74
68712;BME280;55690;51.566;19.198;2023-05-15T00:26:39;101232.07;;;19.60;69.01
68712;BME280;55690;51.566;19.198;2023-05-15T00:30:45;101231.27;;;19.50;70.28
68712;BME280;55690;51.566;19.198;2023-05-15T00:34:51;101193.05;;;19.47;68.61
68712;BME280;55690;51.566;19.198;2023-05-15T00:38:58;101174.49;;;19.31;69.64
68712;BME280;55690;51.566;19.198;2023-05-15T00:43:05;101187.36;;;18.59;73.64
68712;BME280;55690;51.566;19.198;2023-05-15T00:47:11;101181.77;;;18.97;72.39
68712;BME280;55690;51.566;19.198;2023-05-15T00:51:16;101171.58;;;19.15;72.01
68712;BME280;55690;51.566;19.198;2023-05-15T00:55:24;101173.95;;;19.10;72.12
68712;BME280;55690;51.566;19.198;2023-05-15T00:59:29;101177.67;;;19.01;73.32
68712;BME280;55690;51.566;19.198;2023-05-15T01:03:35;101170.25;;;19.19;72.48
68712;BME280;55690;51.566;19.198;2023-05-15T01:11:54;101168.20;;;19.21;71.59
68712;BME280;55690;51.566;19.198;2023-05-15T01:15:57;101155.41;;;18.94;73.48
68712;BME280;55690;51.566;19.198;2023-05-15T01:20:01;101155.50;;;19.02;73.96
68712;BME280;55690;51.566;19.198;2023-05-15T01:28:28;101135.92;;;18.87;74.41
68712;BME280;55690;51.566;19.198;2023-05-15T01:36:52;101125.85;;;18.78;74.72
68712;BME280;55690;51.566;19.198;2023-05-15T01:41:01;101115.30;;;18.74;76.02
68712;BME280;55690;51.566;19.198;2023-05-15T01:45:10;101106.20;;;18.73;75.90
68712;BME280;55690;51.566;19.198;2023-05-15T01:49:13;101100.74;;;18.46;78.06
68712;BME280;55690;51.566;19.198;2023-05-15T01:53:17;101090.14;;;18.51;77.36
68712;BME280;55690;51.566;19.198;2023-05-15T01:57:21;101085.48;;;18.34;78.38
68712;BME280;55690;51.566;19.198;2023-05-15T02:01:25;101077.87;;;18.45;77.41
68712;BME280;55690;51.566;19.198;2023-05-15T02:05:28;101055.54;;;18.13;77.03
68712;BME280;55690;51.566;19.198;2023-05-15T02:09:30;101059.36;;;18.02;77.20
68712;BME280;55690;51.566;19.198;2023-05-15T02:13:33;101056.61;;;18.02;77.34
68712;BME280;55690;51.566;19.198;2023-05-15T02:17:35;101048.62;;;17.81;78.33
68712;BME280;55690;51.566;19.198;2023-05-15T02:21:37;101038.30;;;17.93;77.36
68712;BME280;55690;51.566;19.198;2023-05-15T02:34:17;101017.44;;;18.00;79.24
68712;BME280;55690;51.566;19.198;2023-05-15T02:38:27;101018.66;;;17.88;79.66
68712;BME280;55690;51.566;19.198;2023-05-15T02:42:30;101020.22;;;17.73;79.88
68712;BME280;55690;51.566;19.198;2023-05-15T02:46:32;101013.37;;;17.77;80.59
68712;BME280;55690;51.566;19.198;2023-05-15T02:50:34;101005.20;;;18.12;80.50
68712;BME280;55690;51.566;19.198;2023-05-15T02:54:35;101005.35;;;18.28;79.66
68712;BME280;55690;51.566;19.198;2023-05-15T02:58:37;100999.54;;;18.32;79.21
68712;BME280;55690;51.566;19.198;2023-05-15T03:02:39;100993.04;;;18.15;81.79
68712;BME280;55690;51.566;19.198;2023-05-15T03:06:41;100995.55;;;18.08;80.12
68712;BME280;55690;51.566;19.198;2023-05-15T03:10:46;100982.20;;;18.13;80.72
68712;BME280;55690;51.566;19.198;2023-05-15T03:14:52;100984.85;;;18.41;80.22
68712;BME280;55690;51.566;19.198;2023-05-15T03:18:58;100967.65;;;18.39;80.58
68712;BME280;55690;51.566;19.198;2023-05-15T03:23:04;100966.00;;;18.28;81.12
68712;BME280;55690;51.566;19.198;2023-05-15T03:27:11;100953.28;;;18.27;82.38
68712;BME280;55690;51.566;19.198;2023-05-15T03:31:17;100962.91;;;17.78;84.29
68712;BME280;55690;51.566;19.198;2023-05-15T03:35:23;100962.41;;;17.65;84.22
68712;BME280;55690;51.566;19.198;2023-05-15T03:39:29;100956.02;;;17.91;83.42
68712;BME280;55690;51.566;19.198;2023-05-15T03:43:35;100954.37;;;17.81;83.89
68712;BME280;55690;51.566;19.198;2023-05-15T03:47:41;100961.63;;;17.45;86.18
68712;BME280;55690;51.566;19.198;2023-05-15T03:51:48;100946.23;;;17.34;85.29
68712;BME280;55690;51.566;19.198;2023-05-15T03:55:54;100950.00;;;16.96;88.52
68712;BME280;55690;51.566;19.198;2023-05-15T04:00:00;100951.82;;;17.15;88.35
68712;BME280;55690;51.566;19.198;2023-05-15T04:04:08;100948.03;;;16.88;89.19
68712;BME280;55690;51.566;19.198;2023-05-15T04:08:12;100937.09;;;17.16;87.65
68712;BME280;55690;51.566;19.198;2023-05-15T04:12:18;100928.14;;;16.57;90.42
68712;BME280;55690;51.566;19.198;2023-05-15T04:16:25;100919.49;;;16.52;90.08
68712;BME280;55690;51.566;19.198;2023-05-15T04:20:31;100918.78;;;16.50;91.18
68712;BME280;55690;51.566;19.198;2023-05-15T04:24:37;100918.54;;;16.90;90.68
68712;BME280;55690;51.566;19.198;2023-05-15T04:28:43;100921.08;;;16.55;93.62
68712;BME280;55690;51.566;19.198;2023-05-15T04:32:49;100924.74;;;16.92;91.36
68712;BME280;55690;51.566;19.198;2023-05-15T04:36:55;100916.45;;;16.75;92.65
68712;BME280;55690;51.566;19.198;2023-05-15T04:41:02;100914.61;;;17.03;91.67
68712;BME280;55690;51.566;19.198;2023-05-15T04:45:08;100908.34;;;16.83;93.01
68712;BME280;55690;51.566;19.198;2023-05-15T04:49:14;100900.85;;;17.12;91.37
68712;BME280;55690;51.566;19.198;2023-05-15T04:53:20;100896.22;;;16.85;93.19
68712;BME280;55690;51.566;19.198;2023-05-15T04:57:27;100893.63;;;17.11;91.47
68712;BME280;55690;51.566;19.198;2023-05-15T05:01:32;100896.42;;;17.02;91.77
68712;BME280;55690;51.566;19.198;2023-05-15T05:05:39;100893.18;;;16.88;93.06
68712;BME280;55690;51.566;19.198;2023-05-15T05:09:45;100880.95;;;17.55;90.50
68712;BME280;55690;51.566;19.198;2023-05-15T05:13:51;100871.25;;;17.34;90.45
68712;BME280;55690;51.566;19.198;2023-05-15T05:17:57;100873.88;;;16.61;94.01
68712;BME280;55690;51.566;19.198;2023-05-15T05:22:03;100875.90;;;17.06;92.15
68712;BME280;55690;51.566;19.198;2023-05-15T05:26:10;100872.14;;;17.07;92.34
68712;BME280;55690;51.566;19.198;2023-05-15T05:30:16;100860.71;;;16.27;94.84
68712;BME280;55690;51.566;19.198;2023-05-15T05:34:22;100869.39;;;17.07;92.09
68712;BME280;55690;51.566;19.198;2023-05-15T05:38:28;100862.38;;;16.48;94.94
68712;BME280;55690;51.566;19.198;2023-05-15T05:42:34;100852.42;;;17.21;91.35
68712;BME280;55690;51.566;19.198;2023-05-15T05:46:41;100857.44;;;16.61;94.36
68712;BME280;55690;51.566;19.198;2023-05-15T05:50:47;100843.18;;;17.22;92.16
68712;BME280;55690;51.566;19.198;2023-05-15T05:54:53;100836.56;;;17.78;90.09
68712;BME280;55690;51.566;19.198;2023-05-15T05:58:59;100834.51;;;17.62;91.04
68712;BME280;55690;51.566;19.198;2023-05-15T06:03:05;100834.18;;;17.02;92.16
68712;BME280;55690;51.566;19.198;2023-05-15T06:07:11;100826.72;;;17.40;91.70
68712;BME280;55690;51.566;19.198;2023-05-15T06:11:17;100816.75;;;17.21;91.94
68712;BME280;55690;51.566;19.198;2023-05-15T06:15:24;100815.08;;;17.10;92.44
68712;BME280;55690;51.566;19.198;2023-05-15T06:19:30;100805.22;;;16.90;92.08
68712;BME280;55690;51.566;19.198;2023-05-15T06:23:36;100812.59;;;16.52;93.76
68712;BME280;55690;51.566;19.198;2023-05-15T06:27:42;100799.08;;;17.06;92.51
68712;BME280;55690;51.566;19.198;2023-05-15T06:31:48;100786.22;;;17.06;92.08
68712;BME280;55690;51.566;19.198;2023-05-15T06:35:54;100791.90;;;17.22;91.51
68712;BME280;55690;51.566;19.198;2023-05-15T06:40:01;100788.38;;;17.30;91.61
68712;BME280;55690;51.566;19.198;2023-05-15T06:44:07;100785.62;;;17.48;90.20
68712;BME280;55690;51.566;19.198;2023-05-15T06:48:13;100789.30;;;17.39;91.60
68712;BME280;55690;51.566;19.198;2023-05-15T06:52:19;100779.27;;;17.47;89.99
68712;BME280;55690;51.566;19.198;2023-05-15T06:56:25;100774.48;;;17.49;91.17
68712;BME280;55690;51.566;19.198;2023-05-15T07:00:31;100774.71;;;17.38;91.19
68712;BME280;55690;51.566;19.198;2023-05-15T07:04:38;100770.63;;;17.42;90.94
68712;BME280;55690;51.566;19.198;2023-05-15T07:08:44;100763.67;;;17.30;91.71
68712;BME280;55690;51.566;19.198;2023-05-15T07:12:50;100763.04;;;17.18;92.87
68712;BME280;55690;51.566;19.198;2023-05-15T07:16:56;100749.99;;;16.85;93.22
68712;BME280;55690;51.566;19.198;2023-05-15T07:21:02;100740.84;;;17.12;93.64
68712;BME280;55690;51.566;19.198;2023-05-15T07:25:09;100741.86;;;17.11;93.30
68712;BME280;55690;51.566;19.198;2023-05-15T07:29:15;100735.20;;;17.13;93.55
68712;BME280;55690;51.566;19.198;2023-05-15T07:33:21;100732.13;;;17.34;93.39
68712;BME280;55690;51.566;19.198;2023-05-15T07:37:27;100734.57;;;17.73;92.90
68712;BME280;55690;51.566;19.198;2023-05-15T07:41:33;100731.74;;;17.11;93.73
68712;BME280;55690;51.566;19.198;2023-05-15T07:45:39;100722.00;;;17.52;92.98
68712;BME280;55690;51.566;19.198;2023-05-15T07:49:45;100722.79;;;17.62;92.56
68712;BME280;55690;51.566;19.198;2023-05-15T07:53:52;100721.53;;;17.57;93.09
68712;BME280;55690;51.566;19.198;2023-05-15T07:57:58;100727.73;;;17.41;93.81
68712;BME280;55690;51.566;19.198;2023-05-15T08:02:04;100730.80;;;17.38;93.75
68712;BME280;55690;51.566;19.198;2023-05-15T08:06:10;100728.85;;;17.66;92.94
68712;BME280;55690;51.566;19.198;2023-05-15T08:10:16;100732.98;;;17.52;92.97
68712;BME280;55690;51.566;19.198;2023-05-15T08:14:22;100719.18;;;16.63;95.99
68712;BME280;55690;51.566;19.198;2023-05-15T08:18:29;100718.27;;;17.18;95.10
68712;BME280;55690;51.566;19.198;2023-05-15T08:22:35;100718.48;;;17.42;94.71
68712;BME280;55690;51.566;19.198;2023-05-15T08:26:41;100705.21;;;17.55;94.05
68712;BME280;55690;51.566;19.198;2023-05-15T08:30:47;100709.26;;;17.25;95.11
68712;BME280;55690;51.566;19.198;2023-05-15T08:34:53;100707.33;;;17.61;94.40
68712;BME280;55690;51.566;19.198;2023-05-15T08:38:59;100706.34;;;17.88;92.51
68712;BME280;55690;51.566;19.198;2023-05-15T08:43:11;100707.91;;;17.91;92.24
68712;BME280;55690;51.566;19.198;2023-05-15T08:47:18;100703.05;;;17.85;93.26
68712;BME280;55690;51.566;19.198;2023-05-15T08:51:21;100706.12;;;17.82;93.15
68712;BME280;55690;51.566;19.198;2023-05-15T08:55:25;100698.57;;;17.84;93.02
68712;BME280;55690;51.566;19.198;2023-05-15T08:59:31;100699.40;;;17.58;94.42
68712;BME280;55690;51.566;19.198;2023-05-15T09:03:37;100687.96;;;17.45;94.98
68712;BME280;55690;51.566;19.198;2023-05-15T09:07:44;100689.10;;;18.04;93.16
68712;BME280;55690;51.566;19.198;2023-05-15T09:11:49;100701.97;;;17.78;94.17
68712;BME280;55690;51.566;19.198;2023-05-15T09:15:55;100700.30;;;17.85;93.60
68712;BME280;55690;51.566;19.198;2023-05-15T09:20:03;100700.62;;;17.82;94.62
68712;BME280;55690;51.566;19.198;2023-05-15T09:28:29;100689.92;;;17.71;96.25
68712;BME280;55690;51.566;19.198;2023-05-15T09:32:31;100683.27;;;17.81;95.60
68712;BME280;55690;51.566;19.198;2023-05-15T09:36:32;100683.93;;;18.01;96.10
68712;BME280;55690;51.566;19.198;2023-05-15T09:40:34;100693.30;;;17.90;95.95
68712;BME280;55690;51.566;19.198;2023-05-15T09:44:42;100677.31;;;18.20;95.26
68712;BME280;55690;51.566;19.198;2023-05-15T09:48:45;100688.58;;;17.57;97.85
68712;BME280;55690;51.566;19.198;2023-05-15T09:52:51;100678.06;;;17.96;97.53
68712;BME280;55690;51.566;19.198;2023-05-15T10:01:09;100694.94;;;17.57;98.61
68712;BME280;55690;51.566;19.198;2023-05-15T10:05:12;100683.11;;;17.39;99.78
68712;BME280;55690;51.566;19.198;2023-05-15T10:09:15;100685.32;;;17.79;98.61
68712;BME280;55690;51.566;19.198;2023-05-15T10:13:22;100697.93;;;17.90;98.58
68712;BME280;55690;51.566;19.198;2023-05-15T10:17:30;100686.68;;;18.01;97.53
68712;BME280;55690;51.566;19.198;2023-05-15T10:21:38;100683.98;;;18.09;97.36
68712;BME280;55690;51.566;19.198;2023-05-15T10:29:55;100677.05;;;17.97;98.02
68712;BME280;55690;51.566;19.198;2023-05-15T10:33:59;100680.91;;;17.86;98.40
68712;BME280;55690;51.566;19.198;2023-05-15T10:38:04;100687.57;;;17.40;100.00
68712;BME280;55690;51.566;19.198;2023-05-15T10:42:07;100677.34;;;17.24;100.00
68712;BME280;55690;51.566;19.198;2023-05-15T10:46:12;100692.67;;;17.35;100.00
68712;BME280;55690;51.566;19.198;2023-05-15T10:50:17;100692.05;;;17.41;100.00
68712;BME280;55690;51.566;19.198;2023-05-15T10:54:23;100692.66;;;17.97;99.24
68712;BME280;55690;51.566;19.198;2023-05-15T10:58:30;100688.19;;;18.29;99.11
68712;BME280;55690;51.566;19.198;2023-05-15T11:02:38;100688.84;;;18.57;99.33
68712;BME280;55690;51.566;19.198;2023-05-15T11:06:48;100675.99;;;18.66;99.11
68712;BME280;55690;51.566;19.198;2023-05-15T11:10:50;100643.59;;;18.44;98.73
68712;BME280;55690;51.566;19.198;2023-05-15T11:23:22;100663.41;;;18.21;100.00
68712;BME280;55690;51.566;19.198;2023-05-15T11:27:25;100649.50;;;18.65;99.95
68712;BME280;55690;51.566;19.198;2023-05-15T11:31:30;100638.05;;;18.94;100.00
68712;BME280;55690;51.566;19.198;2023-05-15T11:39:43;100630.34;;;18.39;99.88
68712;BME280;55690;51.566;19.198;2023-05-15T11:43:44;100629.55;;;18.63;99.56
68712;BME280;55690;51.566;19.198;2023-05-15T11:47:46;100634.92;;;18.73;98.83
68712;BME280;55690;51.566;19.198;2023-05-15T11:51:50;100642.31;;;18.72;99.31
68712;BME280;55690;51.566;19.198;2023-05-15T11:55:56;100631.95;;;18.58;99.20
68712;BME280;55690;51.566;19.198;2023-05-15T12:00:03;100631.85;;;18.84;99.06
68712;BME280;55690;51.566;19.198;2023-05-15T12:04:15;100621.16;;;18.22;99.56
68712;BME280;55690;51.566;19.198;2023-05-15T12:08:17;100616.56;;;18.31;100.00
68712;BME280;55690;51.566;19.198;2023-05-15T12:12:23;100620.16;;;19.06;100.00
68712;BME280;55690;51.566;19.198;2023-05-15T12:16:28;100612.59;;;19.49;98.26
68712;BME280;55690;51.566;19.198;2023-05-15T12:20:37;100617.59;;;19.37;97.88
68712;BME280;55690;51.566;19.198;2023-05-15T12:24:39;100620.69;;;19.10;99.13
68712;BME280;55690;51.566;19.198;2023-05-15T12:28:45;100609.69;;;18.93;97.98
68712;BME280;55690;51.566;19.198;2023-05-15T12:32:51;100620.69;;;19.10;98.09
68712;BME280;55690;51.566;19.198;2023-05-15T12:36:58;100611.93;;;18.98;96.20
68712;BME280;55690;51.566;19.198;2023-05-15T12:41:04;100611.73;;;18.83;97.10
68712;BME280;55690;51.566;19.198;2023-05-15T12:45:17;100616.92;;;17.94;98.62
68712;BME280;55690;51.566;19.198;2023-05-15T12:49:22;100605.79;;;18.46;98.57
68712;BME280;55690;51.566;19.198;2023-05-15T12:53:24;100598.23;;;18.48;98.54
68712;BME280;55690;51.566;19.198;2023-05-15T12:57:28;100596.75;;;18.62;97.93
68712;BME280;55690;51.566;19.198;2023-05-15T13:01:35;100609.14;;;18.23;98.51
68712;BME280;55690;51.566;19.198;2023-05-15T13:05:42;100607.94;;;18.26;97.01
68712;BME280;55690;51.566;19.198;2023-05-15T13:13:59;100588.69;;;19.33;95.40
68712;BME280;55690;51.566;19.198;2023-05-15T13:22:09;100586.08;;;20.11;94.90
68712;BME280;55690;51.566;19.198;2023-05-15T13:26:12;100586.48;;;20.70;90.72
68712;BME280;55690;51.566;19.198;2023-05-15T13:30:18;100590.78;;;19.94;92.73
68712;BME280;55690;51.566;19.198;2023-05-15T13:34:24;100594.37;;;19.32;89.91
68712;BME280;55690;51.566;19.198;2023-05-15T13:38:30;100593.72;;;19.93;90.76
68712;BME280;55690;51.566;19.198;2023-05-15T13:42:40;100588.28;;;19.77;89.95
68712;BME280;55690;51.566;19.198;2023-05-15T13:46:42;100589.20;;;19.20;90.20
68712;BME280;55690;51.566;19.198;2023-05-15T13:50:48;100580.59;;;20.03;88.24
68712;BME280;55690;51.566;19.198;2023-05-15T13:54:55;100586.01;;;20.28;86.28
68712;BME280;55690;51.566;19.198;2023-05-15T13:59:01;100574.81;;;21.06;85.23
68712;BME280;55690;51.566;19.198;2023-05-15T14:03:07;100570.94;;;21.15;83.51
68712;BME280;55690;51.566;19.198;2023-05-15T14:07:13;100576.77;;;20.97;84.78
68712;BME280;55690;51.566;19.198;2023-05-15T14:11:19;100576.70;;;20.29;83.36
68712;BME280;55690;51.566;19.198;2023-05-15T14:15:25;100573.40;;;20.33;83.48
68712;BME280;55690;51.566;19.198;2023-05-15T14:19:32;100574.98;;;20.28;84.09
68712;BME280;55690;51.566;19.198;2023-05-15T14:23:38;100579.48;;;20.59;84.80
68712;BME280;55690;51.566;19.198;2023-05-15T14:27:44;100565.80;;;20.66;82.03
68712;BME280;55690;51.566;19.198;2023-05-15T14:31:50;100577.70;;;20.89;80.87
68712;BME280;55690;51.566;19.198;2023-05-15T14:35:56;100575.67;;;20.61;81.37
68712;BME280;55690;51.566;19.198;2023-05-15T14:40:03;100582.46;;;20.50;80.86
68712;BME280;55690;51.566;19.198;2023-05-15T14:44:09;100583.16;;;20.75;79.92
68712;BME280;55690;51.566;19.198;2023-05-15T14:48:15;100583.95;;;21.06;78.99
68712;BME280;55690;51.566;19.198;2023-05-15T14:52:21;100589.29;;;21.08;80.04
68712;BME280;55690;51.566;19.198;2023-05-15T14:56:27;100579.65;;;20.81;80.08
68712;BME280;55690;51.566;19.198;2023-05-15T15:00:33;100582.05;;;20.84;81.49
68712;BME280;55690;51.566;19.198;2023-05-15T15:04:39;100578.88;;;20.72;81.04
68712;BME280;55690;51.566;19.198;2023-05-15T15:08:46;100583.71;;;20.70;82.01
68712;BME280;55690;51.566;19.198;2023-05-15T15:12:52;100589.48;;;20.21;82.16
68712;BME280;55690;51.566;19.198;2023-05-15T15:16:58;100593.06;;;19.91;84.59
68712;BME280;55690;51.566;19.198;2023-05-15T15:21:04;100593.42;;;19.88;86.35
68712;BME280;55690;51.566;19.198;2023-05-15T15:25:11;100573.67;;;19.60;88.28
68712;BME280;55690;51.566;19.198;2023-05-15T15:29:16;100566.13;;;19.46;87.68
68712;BME280;55690;51.566;19.198;2023-05-15T15:33:23;100578.85;;;19.55;87.60
68712;BME280;55690;51.566;19.198;2023-05-15T15:37:30;100585.23;;;19.55;88.59
68712;BME280;55690;51.566;19.198;2023-05-15T15:41:36;100573.04;;;18.85;90.96
68712;BME280;55690;51.566;19.198;2023-05-15T15:45:41;100574.75;;;19.10;90.50
68712;BME280;55690;51.566;19.198;2023-05-15T15:49:49;100579.75;;;18.82;92.40
68712;BME280;55690;51.566;19.198;2023-05-15T15:53:53;100577.17;;;18.89;93.85
68712;BME280;55690;51.566;19.198;2023-05-15T15:58:00;100579.26;;;18.95;92.65
68712;BME280;55690;51.566;19.198;2023-05-15T16:02:06;100579.89;;;18.65;94.71
68712;BME280;55690;51.566;19.198;2023-05-15T16:06:12;100585.03;;;18.59;94.73
68712;BME280;55690;51.566;19.198;2023-05-15T16:10:18;100585.55;;;18.63;95.27
68712;BME280;55690;51.566;19.198;2023-05-15T16:14:24;100598.32;;;18.88;93.17
68712;BME280;55690;51.566;19.198;2023-05-15T16:18:30;100595.88;;;18.69;93.29
68712;BME280;55690;51.566;19.198;2023-05-15T16:22:37;100598.59;;;18.53;91.92
68712;BME280;55690;51.566;19.198;2023-05-15T16:26:43;100594.35;;;18.83;91.13
68712;BME280;55690;51.566;19.198;2023-05-15T16:30:49;100603.92;;;18.54;92.00
68712;BME280;55690;51.566;19.198;2023-05-15T16:34:55;100600.81;;;18.49;90.46
68712;BME280;55690;51.566;19.198;2023-05-15T16:39:01;100600.03;;;18.23;92.10
68712;BME280;55690;51.566;19.198;2023-05-15T16:43:08;100607.77;;;17.85;93.16
68712;BME280;55690;51.566;19.198;2023-05-15T16:47:14;100606.66;;;18.04;91.99
68712;BME280;55690;51.566;19.198;2023-05-15T16:51:20;100616.09;;;17.68;93.76
68712;BME280;55690;51.566;19.198;2023-05-15T16:55:26;100616.49;;;17.55;93.97
68712;BME280;55690;51.566;19.198;2023-05-15T16:59:32;100613.20;;;17.69;92.70
68712;BME280;55690;51.566;19.198;2023-05-15T17:03:38;100620.45;;;18.12;90.50
68712;BME280;55690;51.566;19.198;2023-05-15T17:07:44;100629.74;;;17.85;91.35
68712;BME280;55690;51.566;19.198;2023-05-15T17:11:50;100638.80;;;17.78;92.18
68712;BME280;55690;51.566;19.198;2023-05-15T17:15:57;100648.26;;;17.57;92.64
68712;BME280;55690;51.566;19.198;2023-05-15T17:20:04;100648.20;;;17.49;92.65
68712;BME280;55690;51.566;19.198;2023-05-15T17:24:09;100652.83;;;17.67;92.35
68712;BME280;55690;51.566;19.198;2023-05-15T17:28:15;100655.98;;;17.36;92.48
68712;BME280;55690;51.566;19.198;2023-05-15T17:32:21;100651.87;;;17.14;93.60
68712;BME280;55690;51.566;19.198;2023-05-15T17:36:27;100663.97;;;17.47;92.30
68712;BME280;55690;51.566;19.198;2023-05-15T17:40:34;100668.20;;;17.42;91.68
68712;BME280;55690;51.566;19.198;2023-05-15T17:44:40;100663.39;;;17.61;90.20
68712;BME280;55690;51.566;19.198;2023-05-15T17:48:46;100658.47;;;17.65;90.04
68712;BME280;55690;51.566;19.198;2023-05-15T17:52:52;100662.15;;;17.56;90.94
68712;BME280;55690;51.566;19.198;2023-05-15T17:56:58;100653.44;;;17.60;90.28
68712;BME280;55690;51.566;19.198;2023-05-15T18:01:05;100656.34;;;17.59;90.48
68712;BME280;55690;51.566;19.198;2023-05-15T18:05:11;100665.24;;;17.79;89.77
68712;BME280;55690;51.566;19.198;2023-05-15T18:09:17;100665.53;;;17.68;89.44
68712;BME280;55690;51.566;19.198;2023-05-15T18:13:23;100665.93;;;17.81;88.68
68712;BME280;55690;51.566;19.198;2023-05-15T18:17:29;100664.59;;;17.85;88.30
68712;BME280;55690;51.566;19.198;2023-05-15T18:21:35;100664.96;;;17.64;88.38
68712;BME280;55690;51.566;19.198;2023-05-15T18:25:41;100681.52;;;17.54;89.00
68712;BME280;55690;51.566;19.198;2023-05-15T18:29:48;100685.77;;;17.49;88.21
68712;BME280;55690;51.566;19.198;2023-05-15T18:33:54;100680.83;;;17.35;89.58
68712;BME280;55690;51.566;19.198;2023-05-15T18:38:02;100686.71;;;17.40;88.91
68712;BME280;55690;51.566;19.198;2023-05-15T18:42:09;100696.95;;;17.12;90.55
68712;BME280;55690;51.566;19.198;2023-05-15T18:46:15;100695.13;;;16.85;92.17
68712;BME280;55690;51.566;19.198;2023-05-15T18:50:21;100708.05;;;16.75;93.10
68712;BME280;55690;51.566;19.198;2023-05-15T18:54:27;100721.38;;;16.33;95.64
68712;BME280;55690;51.566;19.198;2023-05-15T18:58:33;100726.18;;;16.48;94.85
68712;BME280;55690;51.566;19.198;2023-05-15T19:02:39;100725.57;;;16.54;94.57
68712;BME280;55690;51.566;19.198;2023-05-15T19:06:46;100735.07;;;16.60;93.96
68712;BME280;55690;51.566;19.198;2023-05-15T19:10:52;100749.09;;;16.20;96.20
68712;BME280;55690;51.566;19.198;2023-05-15T19:14:59;100744.00;;;15.98;96.95
68712;BME280;55690;51.566;19.198;2023-05-15T19:19:04;100755.15;;;16.23;96.25
68712;BME280;55690;51.566;19.198;2023-05-15T19:23:10;100757.11;;;16.41;95.86
68712;BME280;55690;51.566;19.198;2023-05-15T19:27:16;100764.09;;;16.25;95.99
68712;BME280;55690;51.566;19.198;2023-05-15T19:31:23;100765.29;;;16.04;97.91
68712;BME280;55690;51.566;19.198;2023-05-15T19:35:29;100779.04;;;15.84;99.06
68712;BME280;55690;51.566;19.198;2023-05-15T19:39:35;100768.50;;;15.99;97.80
68712;BME280;55690;51.566;19.198;2023-05-15T19:43:41;100793.82;;;16.11;97.52
68712;BME280;55690;51.566;19.198;2023-05-15T19:47:47;100786.96;;;15.87;98.42
68712;BME280;55690;51.566;19.198;2023-05-15T19:51:53;100788.71;;;15.69;99.22
68712;BME280;55690;51.566;19.198;2023-05-15T19:56:00;100807.55;;;15.34;100.00
68712;BME280;55690;51.566;19.198;2023-05-15T20:00:07;100791.77;;;16.22;96.11
68712;BME280;55690;51.566;19.198;2023-05-15T20:04:12;100798.82;;;16.35;94.90
68712;BME280;55690;51.566;19.198;2023-05-15T20:08:18;100792.67;;;16.13;95.77
68712;BME280;55690;51.566;19.198;2023-05-15T20:12:24;100794.88;;;16.00;96.63
68712;BME280;55690;51.566;19.198;2023-05-15T20:16:30;100795.12;;;16.16;95.65
68712;BME280;55690;51.566;19.198;2023-05-15T20:20:37;100792.16;;;15.81;96.92
68712;BME280;55690;51.566;19.198;2023-05-15T20:24:43;100792.02;;;15.53;97.88
68712;BME280;55690;51.566;19.198;2023-05-15T20:28:49;100798.10;;;15.57;97.74
68712;BME280;55690;51.566;19.198;2023-05-15T20:32:55;100791.84;;;15.26;98.30
68712;BME280;55690;51.566;19.198;2023-05-15T20:37:02;100788.41;;;15.62;96.90
68712;BME280;55690;51.566;19.198;2023-05-15T20:41:07;100799.83;;;15.58;97.49
68712;BME280;55690;51.566;19.198;2023-05-15T20:45:14;100791.00;;;15.45;97.87
68712;BME280;55690;51.566;19.198;2023-05-15T20:49:20;100788.69;;;15.40;97.39
68712;BME280;55690;51.566;19.198;2023-05-15T20:53:26;100791.73;;;15.47;96.31
68712;BME280;55690;51.566;19.198;2023-05-15T20:57:32;100793.60;;;15.66;96.04
68712;BME280;55690;51.566;19.198;2023-05-15T21:01:38;100800.36;;;15.42;96.98
68712;BME280;55690;51.566;19.198;2023-05-15T21:05:45;100810.39;;;15.03;99.00
68712;BME280;55690;51.566;19.198;2023-05-15T21:09:51;100816.87;;;15.02;98.87
68712;BME280;55690;51.566;19.198;2023-05-15T21:13:57;100819.43;;;14.94;99.42
68712;BME280;55690;51.566;19.198;2023-05-15T21:18:03;100815.54;;;14.96;100.00
68712;BME280;55690;51.566;19.198;2023-05-15T21:22:09;100832.60;;;14.79;100.00
68712;BME280;55690;51.566;19.198;2023-05-15T21:26:15;100825.04;;;14.92;99.35
68712;BME280;55690;51.566;19.198;2023-05-15T21:30:21;100830.36;;;14.94;100.00
68712;BME280;55690;51.566;19.198;2023-05-15T21:34:28;100821.91;;;15.07;100.00
68712;BME280;55690;51.566;19.198;2023-05-15T21:38:34;100813.44;;;15.29;98.63
68712;BME280;55690;51.566;19.198;2023-05-15T21:42:40;100811.81;;;14.97;100.00
68712;BME280;55690;51.566;19.198;2023-05-15T21:46:46;100816.00;;;15.02;100.00
68712;BME280;55690;51.566;19.198;2023-05-15T21:50:56;100824.34;;;15.00;99.74
68712;BME280;55690;51.566;19.198;2023-05-15T21:54:58;100823.09;;;15.14;99.86
68712;BME280;55690;51.566;19.198;2023-05-15T21:59:05;100828.67;;;15.03;100.00
68712;BME280;55690;51.566;19.198;2023-05-15T22:03:11;100840.71;;;14.90;100.00